createdAt,value
2023-06-10T00:01:44.350Z,5.10
2023-06-10T00:06:44.958Z,5.73
2023-06-10T00:11:43.625Z,6.30
2023-06-10T00:16:42.102Z,5.50
2023-06-10T00:21:41.404Z,5.60
2023-06-10T00:26:41.633Z,4.70
2023-06-10T00:31:40.426Z,4.67
2023-06-10T00:36:38.957Z,5.40
2023-06-10T00:41:37.287Z,4.90
2023-06-10T00:46:38.682Z,5.50
2023-06-10T00:51:37.515Z,5.27
2023-06-10T00:56:36.685Z,4.67
2023-06-10T01:01:38.974Z,4.83
2023-06-10T01:06:48.621Z,4.90
2023-06-10T01:11:52.636Z,5.37
2023-06-10T01:16:56.465Z,4.97
2023-06-10T01:21:57.368Z,5.03
2023-06-10T01:27:00.631Z,5.10
2023-06-10T01:32:06.231Z,5.43
2023-06-10T01:37:06.707Z,5.10
2023-06-10T01:42:07.661Z,5.43
2023-06-10T01:47:08.216Z,4.90
2023-06-10T01:52:09.173Z,4.90
2023-06-10T01:57:08.164Z,4.90
2023-06-10T02:02:06.894Z,5.70
2023-06-10T02:07:06.996Z,5.40
2023-06-10T02:12:08.432Z,5.47
2023-06-10T02:17:07.012Z,5.30
2023-06-10T02:22:06.495Z,4.80
2023-06-10T02:27:07.849Z,4.40
2023-06-10T02:32:08.339Z,4.97
2023-06-10T02:37:09.320Z,5.00
2023-06-10T02:42:09.747Z,5.37
2023-06-10T02:47:08.409Z,4.30
2023-06-10T02:52:09.572Z,5.30
2023-06-10T02:57:11.232Z,5.20
2023-06-10T03:02:09.393Z,4.87
2023-06-10T03:07:15.170Z,5.67
2023-06-10T03:12:14.938Z,5.27
2023-06-10T03:17:17.372Z,4.83
2023-06-10T03:22:18.715Z,6.30
2023-06-10T03:27:32.746Z,5.20
2023-06-10T03:32:34.902Z,5.97
2023-06-10T03:37:33.091Z,5.40
2023-06-10T03:42:33.385Z,5.33
2023-06-10T03:47:37.119Z,5.57
2023-06-10T03:52:38.376Z,5.93
2023-06-10T03:57:39.204Z,5.60
2023-06-10T04:02:37.804Z,5.80
2023-06-10T04:07:36.502Z,5.57
2023-06-10T04:12:34.837Z,5.80
2023-06-10T04:17:34.904Z,6.20
2023-06-10T04:22:33.468Z,5.30
2023-06-10T04:27:31.892Z,5.93
2023-06-10T04:32:30.559Z,6.17
2023-06-10T04:37:31.384Z,7.30
2023-06-10T04:42:29.839Z,5.90
2023-06-10T04:47:28.834Z,6.03
2023-06-10T04:52:27.190Z,6.70
2023-06-10T04:57:28.252Z,5.20
2023-06-10T05:02:26.429Z,5.73
2023-06-10T05:07:25.019Z,6.73
2023-06-10T05:12:23.542Z,6.97
2023-06-10T05:17:23.262Z,6.27
2023-06-10T05:22:21.512Z,6.80
2023-06-10T05:27:19.834Z,7.30
2023-06-10T05:32:17.923Z,6.67
2023-06-10T05:37:17.589Z,6.47
2023-06-10T05:42:15.889Z,6.40
2023-06-10T05:47:14.117Z,6.10
2023-06-10T05:52:12.156Z,6.40
2023-06-10T05:57:12.471Z,6.40
2023-06-10T06:02:10.945Z,6.13
2023-06-10T06:07:09.077Z,6.10
2023-06-10T06:12:08.626Z,7.33
2023-06-10T06:17:08.761Z,6.20
2023-06-10T06:22:07.128Z,6.50
2023-06-10T06:27:06.521Z,6.87
2023-06-10T06:32:04.997Z,6.77
2023-06-10T06:37:04.883Z,6.20
2023-06-10T06:42:06.862Z,6.17
2023-06-10T06:47:31.787Z,6.90
2023-06-10T06:52:32.052Z,6.43
2023-06-10T06:57:30.312Z,7.70
2023-06-10T07:02:28.568Z,6.77
2023-06-10T07:07:26.822Z,6.63
2023-06-10T07:12:26.599Z,7.30
2023-06-10T07:17:24.742Z,7.63
2023-06-10T07:22:23.148Z,8.07
2023-06-10T07:27:21.384Z,7.80
2023-06-10T07:32:23.312Z,6.87
2023-06-10T07:37:21.650Z,6.30
2023-06-10T07:42:19.885Z,7.37
2023-06-10T07:47:18.040Z,9.03
2023-06-10T07:52:17.941Z,7.57
2023-06-10T07:57:16.282Z,7.20
2023-06-10T08:02:14.355Z,6.60
2023-06-10T08:07:12.676Z,7.23
2023-06-10T08:12:12.981Z,7.20
2023-06-10T08:17:13.697Z,7.73
2023-06-10T08:22:11.992Z,7.47
2023-06-10T08:27:12.408Z,7.37
2023-06-10T08:32:10.882Z,7.23
2023-06-10T08:37:09.430Z,7.70
2023-06-10T08:42:21.818Z,7.50
2023-06-10T08:47:20.154Z,6.77
2023-06-10T08:52:20.264Z,6.50
2023-06-10T08:57:22.833Z,7.57
2023-06-10T09:02:22.057Z,7.70
2023-06-10T09:07:20.390Z,6.87
2023-06-10T09:12:19.926Z,6.90
2023-06-10T09:17:19.018Z,7.20
2023-06-10T09:22:17.371Z,6.80
2023-06-10T09:27:15.968Z,7.60
2023-06-10T09:32:15.811Z,7.07
2023-06-10T09:37:14.974Z,6.23
2023-06-10T09:42:20.257Z,6.53
2023-06-10T09:47:23.798Z,6.97
2023-06-10T09:52:25.327Z,6.40
2023-06-10T09:57:24.304Z,7.43
2023-06-10T10:02:24.033Z,6.70
2023-06-10T10:07:22.316Z,7.00
2023-06-10T10:12:20.990Z,6.47
2023-06-10T10:17:20.244Z,5.83
2023-06-10T10:22:26.549Z,6.03
2023-06-10T10:27:31.061Z,6.27
2023-06-10T10:32:34.762Z,6.47
2023-06-10T10:37:34.908Z,7.13
2023-06-10T10:42:34.389Z,7.10
2023-06-10T10:47:34.404Z,6.27
2023-06-10T10:52:53.766Z,5.27
2023-06-10T10:57:59.355Z,4.70
2023-06-10T11:03:03.620Z,4.10
2023-06-10T11:08:04.923Z,4.00
2023-06-10T11:13:08.398Z,4.60
2023-06-10T11:18:15.175Z,4.07
2023-06-10T11:23:27.821Z,4.13
2023-06-10T11:28:30.281Z,4.77
2023-06-10T11:33:29.141Z,4.30
2023-06-10T11:38:30.082Z,7.10
2023-06-10T11:43:28.433Z,5.17
2023-06-10T11:48:29.607Z,6.77
2023-06-10T11:53:29.558Z,5.77
2023-06-10T11:58:27.868Z,5.37
2023-06-10T12:03:27.141Z,5.50
2023-06-10T12:08:26.131Z,5.83
2023-06-10T12:13:26.180Z,5.97
2023-06-10T12:18:25.565Z,6.70
2023-06-10T12:23:24.116Z,5.53
2023-06-10T12:28:25.190Z,5.20
2023-06-10T12:33:24.052Z,4.83
2023-06-10T12:38:28.305Z,4.90
2023-06-10T12:43:28.105Z,4.60
2023-06-10T12:48:30.179Z,5.13
2023-06-10T12:53:29.406Z,5.50
2023-06-10T12:58:28.882Z,6.07
2023-06-10T13:03:27.587Z,5.77
2023-06-10T13:08:26.062Z,6.37
2023-06-10T13:18:41.571Z,6.70
2023-06-10T13:23:39.925Z,6.20
2023-06-10T13:28:38.206Z,6.83
2023-06-10T13:33:36.426Z,6.60
2023-06-10T13:38:36.050Z,7.17
2023-06-10T13:43:34.140Z,6.20
2023-06-10T13:48:32.396Z,7.10
2023-06-10T13:53:30.779Z,6.00
2023-06-10T13:58:30.373Z,6.80
2023-06-10T14:03:28.691Z,6.07
2023-06-10T14:08:27.026Z,7.30
2023-06-10T14:13:25.324Z,6.70
2023-06-10T14:18:24.922Z,6.80
2023-06-10T14:23:23.209Z,7.00
2023-06-10T14:28:21.260Z,5.90
2023-06-10T14:33:20.193Z,5.63
2023-06-10T14:38:20.091Z,5.93
2023-06-10T14:43:18.322Z,6.60
2023-06-10T14:48:16.842Z,5.37
2023-06-10T14:53:15.081Z,5.67
2023-06-10T14:58:14.727Z,6.00
2023-06-10T15:03:13.045Z,4.80
2023-06-10T15:08:12.499Z,5.80
2023-06-10T15:13:10.732Z,5.90
2023-06-10T15:18:10.266Z,5.63
2023-06-10T15:23:09.129Z,5.20
2023-06-10T15:28:07.361Z,6.00
2023-06-10T15:33:07.811Z,5.17
2023-06-10T15:38:07.559Z,5.33
2023-06-10T15:43:05.804Z,6.50
2023-06-10T15:48:04.264Z,5.63
2023-06-10T15:53:02.567Z,4.73
2023-06-10T15:58:04.979Z,5.20
2023-06-10T16:03:04.191Z,5.30
2023-06-10T16:08:03.367Z,4.83
2023-06-10T16:13:03.752Z,4.03
2023-06-10T16:18:02.099Z,4.83
2023-06-10T16:23:00.177Z,4.00
2023-06-10T16:27:58.692Z,5.13
2023-06-10T16:32:58.514Z,6.53
2023-06-10T16:37:56.768Z,4.53
2023-06-10T16:42:54.998Z,4.47
2023-06-10T16:47:53.250Z,4.60
2023-06-10T16:52:52.774Z,4.90
2023-06-10T16:57:50.863Z,4.70
2023-06-10T17:02:49.304Z,5.80
2023-06-10T17:07:48.450Z,5.00
2023-06-10T17:12:48.233Z,6.83
2023-06-10T17:17:46.573Z,5.33
2023-06-10T17:22:45.061Z,5.57
2023-06-10T17:27:43.356Z,5.70
2023-06-10T17:32:43.006Z,4.03
2023-06-10T17:37:41.306Z,5.10
2023-06-10T17:42:39.561Z,5.90
2023-06-10T17:47:37.864Z,4.93
2023-06-10T17:52:37.552Z,4.93
2023-06-10T17:57:35.809Z,4.23
2023-06-10T18:02:34.144Z,4.70
2023-06-10T18:07:32.720Z,4.73
2023-06-10T18:12:32.322Z,4.27
2023-06-10T18:17:30.678Z,3.67
2023-06-10T18:22:29.016Z,5.27
2023-06-10T18:27:27.344Z,4.70
2023-06-10T18:32:27.158Z,4.90
2023-06-10T18:37:25.596Z,5.07
2023-06-10T18:42:23.832Z,5.10
2023-06-10T18:47:21.922Z,4.80
2023-06-10T18:52:21.717Z,5.07
2023-06-10T18:57:19.944Z,5.50
2023-06-10T19:02:18.197Z,5.40
2023-06-10T19:07:18.352Z,5.33
2023-06-10T19:12:19.967Z,5.90
2023-06-10T19:17:18.310Z,5.27
2023-06-10T19:22:16.875Z,5.73
2023-06-10T19:27:15.143Z,6.10
2023-06-10T19:32:14.719Z,5.90
2023-06-10T19:37:13.016Z,5.17
2023-06-10T19:42:13.525Z,5.40
2023-06-10T19:47:15.070Z,4.60
2023-06-10T19:52:13.357Z,5.03
2023-06-10T19:57:11.600Z,4.97
2023-06-10T20:02:09.949Z,5.10
2023-06-10T20:07:09.501Z,5.03
2023-06-10T20:12:09.308Z,4.50
2023-06-10T20:17:07.922Z,4.50
2023-06-10T20:22:06.292Z,4.40
2023-06-10T20:27:06.999Z,4.77
2023-06-10T20:32:05.618Z,4.83
2023-06-10T20:37:04.557Z,4.33
2023-06-10T20:42:02.606Z,5.10
2023-06-10T20:47:02.412Z,4.80
2023-06-10T20:52:00.685Z,4.97
2023-06-10T20:56:58.973Z,5.47
2023-06-10T21:01:57.542Z,5.43
2023-06-10T21:06:57.215Z,5.17
2023-06-10T21:11:55.564Z,4.97
2023-06-10T21:16:53.628Z,5.67
2023-06-10T21:21:51.755Z,5.30
2023-06-10T21:26:51.443Z,5.80
2023-06-10T21:31:50.234Z,5.30
2023-06-10T21:36:48.393Z,4.83
2023-06-10T21:41:46.658Z,5.03
2023-06-10T21:46:46.291Z,5.20
2023-06-10T21:51:46.137Z,5.50
2023-06-10T21:56:47.971Z,4.80
2023-06-10T22:01:47.588Z,5.13
2023-06-10T22:06:46.323Z,4.90
2023-06-10T22:11:44.836Z,4.90
2023-06-10T22:16:43.226Z,4.93
2023-06-10T22:21:42.876Z,5.03
2023-06-10T22:26:52.263Z,5.20
2023-06-10T22:31:52.298Z,4.60
2023-06-10T22:36:51.753Z,5.10
2023-06-10T22:41:50.114Z,4.60
2023-06-10T22:46:48.339Z,3.90
2023-06-10T22:51:47.384Z,5.30
2023-06-10T22:56:47.054Z,4.50
2023-06-10T23:01:45.407Z,7.30
2023-06-10T23:06:43.896Z,4.30
2023-06-10T23:11:42.331Z,4.67
2023-06-10T23:16:46.910Z,3.43
2023-06-10T23:21:49.818Z,4.17
2023-06-10T23:26:49.295Z,3.80
2023-06-10T23:31:48.717Z,3.57
2023-06-10T23:36:47.898Z,3.37
2023-06-10T23:41:47.386Z,3.07
2023-06-10T23:46:45.655Z,3.70
2023-06-10T23:51:45.130Z,3.80
2023-06-10T23:56:43.443Z,3.47
